createdAt,value
2022-12-29T00:01:44.872Z,86.69
2022-12-29T00:04:46.885Z,86.50
2022-12-29T00:07:48.838Z,86.56
2022-12-29T00:10:50.629Z,86.44
2022-12-29T00:14:11.847Z,86.07
2022-12-29T00:17:14.231Z,86.47
2022-12-29T00:20:34.717Z,86.41
2022-12-29T00:23:56.192Z,86.54
2022-12-29T00:27:22.818Z,86.53
2022-12-29T00:30:44.164Z,86.53
2022-12-29T00:34:05.839Z,86.64
2022-12-29T00:37:07.828Z,86.71
2022-12-29T00:40:28.296Z,86.63
2022-12-29T00:43:48.561Z,86.77
2022-12-29T00:46:50.573Z,86.48
2022-12-29T00:49:52.500Z,86.40
2022-12-29T00:52:54.343Z,86.35
2022-12-29T00:55:56.220Z,86.23
2022-12-29T00:59:02.644Z,86.13
2022-12-29T01:02:04.807Z,86.15
2022-12-29T01:05:07.201Z,86.11
2022-12-29T01:08:09.156Z,86.03
2022-12-29T01:11:13.686Z,85.98
2022-12-29T01:14:16.177Z,86.08
2022-12-29T01:17:19.837Z,85.97
2022-12-29T01:20:21.965Z,86.18
2022-12-29T01:23:23.872Z,85.90
2022-12-29T01:26:26.000Z,86.08
2022-12-29T01:29:27.849Z,86.10
2022-12-29T01:32:29.660Z,85.91
2022-12-29T01:35:32.000Z,85.99
2022-12-29T01:38:35.628Z,86.10
2022-12-29T01:41:37.679Z,85.99
2022-12-29T01:44:50.878Z,85.87
2022-12-29T01:48:02.662Z,86.17
2022-12-29T01:51:04.636Z,85.79
2022-12-29T01:54:14.840Z,85.94
2022-12-29T01:57:22.726Z,86.08
2022-12-29T02:00:24.683Z,85.97
2022-12-29T02:03:28.363Z,85.98
2022-12-29T02:06:44.744Z,86.28
2022-12-29T02:09:51.946Z,86.30
2022-12-29T02:12:54.819Z,86.16
2022-12-29T02:16:07.896Z,86.43
2022-12-29T02:19:34.435Z,86.26
2022-12-29T02:22:44.816Z,86.69
2022-12-29T02:26:18.878Z,86.66
2022-12-29T02:29:45.655Z,86.84
2022-12-29T02:33:20.943Z,87.05
2022-12-29T02:36:40.215Z,87.09
2022-12-29T02:39:52.280Z,86.85
2022-12-29T02:43:06.076Z,87.14
2022-12-29T02:46:41.608Z,87.17
2022-12-29T02:49:59.783Z,87.06
2022-12-29T02:53:07.052Z,86.84
2022-12-29T02:56:10.258Z,86.92
2022-12-29T02:59:13.249Z,86.84
2022-12-29T03:02:33.965Z,86.88
2022-12-29T03:06:08.490Z,86.91
2022-12-29T03:09:28.485Z,87.13
2022-12-29T03:13:01.406Z,87.31
2022-12-29T03:16:17.540Z,87.25
2022-12-29T03:19:31.889Z,87.55
2022-12-29T03:22:39.444Z,87.25
2022-12-29T03:25:49.697Z,87.45
2022-12-29T03:28:57.122Z,87.53
2022-12-29T03:32:03.537Z,87.71
2022-12-29T03:35:08.438Z,87.41
2022-12-29T03:38:19.736Z,87.37
2022-12-29T03:41:28.151Z,87.30
2022-12-29T03:44:34.737Z,87.42
2022-12-29T03:47:37.685Z,87.41
2022-12-29T03:50:40.145Z,87.29
2022-12-29T03:53:42.595Z,87.42
2022-12-29T03:56:44.636Z,87.40
2022-12-29T03:59:55.390Z,87.52
2022-12-29T04:02:57.445Z,87.29
2022-12-29T04:05:59.518Z,87.59
2022-12-29T04:09:03.699Z,87.41
2022-12-29T04:12:09.725Z,87.71
2022-12-29T04:15:12.055Z,87.61
2022-12-29T04:18:14.365Z,87.51
2022-12-29T04:21:16.646Z,87.40
2022-12-29T04:24:20.377Z,87.58
2022-12-29T04:27:25.210Z,87.42
2022-12-29T04:30:50.571Z,87.36
2022-12-29T04:34:06.327Z,87.47
2022-12-29T04:37:08.367Z,87.27
2022-12-29T04:40:10.906Z,87.62
2022-12-29T04:43:13.878Z,87.55
2022-12-29T04:46:36.115Z,87.34
2022-12-29T04:49:43.750Z,87.24
2022-12-29T04:53:11.752Z,87.62
2022-12-29T04:56:13.656Z,87.77
2022-12-29T04:59:15.669Z,87.58
2022-12-29T05:02:20.057Z,87.54
2022-12-29T05:05:25.106Z,87.67
2022-12-29T05:08:28.570Z,87.42
2022-12-29T05:11:33.343Z,87.51
2022-12-29T05:14:36.542Z,87.38
2022-12-29T05:17:39.083Z,87.40
2022-12-29T05:20:42.641Z,87.68
2022-12-29T05:23:44.848Z,87.68
2022-12-29T05:26:46.984Z,87.65
2022-12-29T05:30:10.107Z,87.79
2022-12-29T05:33:12.716Z,87.56
2022-12-29T05:36:15.599Z,87.89
2022-12-29T05:39:22.099Z,87.84
2022-12-29T05:42:29.908Z,87.61
2022-12-29T05:45:44.225Z,87.70
2022-12-29T05:49:05.847Z,87.86
2022-12-29T05:52:12.957Z,87.87
2022-12-29T05:55:14.965Z,87.98
2022-12-29T05:58:19.090Z,87.75
2022-12-29T06:01:22.986Z,87.88
2022-12-29T06:04:24.961Z,87.90
2022-12-29T06:07:27.927Z,88.26
2022-12-29T06:10:29.914Z,88.19
2022-12-29T06:13:40.226Z,88.52
2022-12-29T06:16:43.211Z,88.53
2022-12-29T06:19:47.627Z,88.45
2022-12-29T06:22:50.358Z,88.42
2022-12-29T06:25:53.032Z,88.06
2022-12-29T06:28:54.885Z,88.28
2022-12-29T06:31:59.040Z,88.42
2022-12-29T06:35:02.132Z,88.15
2022-12-29T06:38:03.997Z,87.82
2022-12-29T06:41:05.938Z,88.21
2022-12-29T06:44:10.590Z,88.08
2022-12-29T06:47:25.184Z,88.30
2022-12-29T06:50:26.918Z,88.06
2022-12-29T06:53:28.835Z,87.97
2022-12-29T06:56:30.636Z,88.25
2022-12-29T06:59:32.377Z,88.36
2022-12-29T07:02:35.155Z,88.01
2022-12-29T07:05:37.000Z,87.89
2022-12-29T07:08:39.505Z,87.99
2022-12-29T07:11:41.279Z,87.91
2022-12-29T07:14:43.756Z,87.67
2022-12-29T07:17:45.593Z,87.51
2022-12-29T07:20:47.448Z,87.88
2022-12-29T07:23:49.204Z,87.80
2022-12-29T07:26:50.938Z,87.70
2022-12-29T07:29:52.649Z,87.69
2022-12-29T07:32:54.344Z,87.52
2022-12-29T07:35:56.245Z,87.77
2022-12-29T07:38:58.004Z,87.74
2022-12-29T07:42:04.864Z,87.56
2022-12-29T07:45:13.928Z,87.19
2022-12-29T07:48:42.443Z,87.33
2022-12-29T07:51:44.266Z,87.12
2022-12-29T07:54:46.338Z,87.09
2022-12-29T07:57:48.096Z,87.02
2022-12-29T08:00:53.842Z,86.77
2022-12-29T08:03:57.571Z,86.52
2022-12-29T08:06:59.645Z,86.59
2022-12-29T08:10:02.472Z,86.34
2022-12-29T08:13:04.245Z,86.23
2022-12-29T08:16:06.292Z,85.89
2022-12-29T08:19:08.134Z,86.09
2022-12-29T08:22:09.857Z,86.08
2022-12-29T08:25:11.670Z,85.85
2022-12-29T08:28:13.606Z,85.92
2022-12-29T08:31:15.418Z,85.70
2022-12-29T08:34:17.294Z,85.87
2022-12-29T08:37:18.967Z,85.48
2022-12-29T08:40:20.757Z,84.72
2022-12-29T08:53:07.581Z,84.45
2022-12-29T08:56:10.157Z,83.96
2022-12-29T08:59:20.544Z,83.78
2022-12-29T09:02:24.587Z,83.92
2022-12-29T09:05:26.734Z,84.05
2022-12-29T09:08:28.541Z,83.42
2022-12-29T09:11:30.763Z,83.34
2022-12-29T09:14:32.553Z,83.53
2022-12-29T09:17:46.562Z,83.55
2022-12-29T09:20:48.351Z,83.97
2022-12-29T09:23:50.167Z,83.26
2022-12-29T09:26:52.010Z,83.77
2022-12-29T09:29:53.836Z,83.76
2022-12-29T09:32:55.657Z,83.81
2022-12-29T09:35:58.889Z,83.56
2022-12-29T09:39:00.658Z,83.39
2022-12-29T09:42:08.581Z,83.43
2022-12-29T09:45:10.296Z,83.47
2022-12-29T09:48:21.292Z,82.42
2022-12-29T09:51:24.747Z,82.59
2022-12-29T09:54:32.605Z,82.34
2022-12-29T09:57:42.034Z,82.15
2022-12-29T10:00:56.131Z,81.69
2022-12-29T10:03:59.449Z,81.66
2022-12-29T10:07:28.585Z,81.60
2022-12-29T10:10:22.930Z,82.19
2022-12-29T10:13:28.278Z,81.54
2022-12-29T10:16:49.197Z,81.34
2022-12-29T10:19:54.129Z,81.67
2022-12-29T10:23:22.158Z,81.01
2022-12-29T10:26:37.100Z,80.51
2022-12-29T10:29:42.248Z,80.04
2022-12-29T10:32:51.289Z,79.78
2022-12-29T10:35:53.207Z,80.02
2022-12-29T10:39:04.335Z,79.30
2022-12-29T10:42:06.184Z,79.16
2022-12-29T10:45:13.319Z,79.10
2022-12-29T10:48:28.542Z,77.61
2022-12-29T10:51:36.359Z,78.89
2022-12-29T10:54:50.734Z,78.57
2022-12-29T10:57:52.832Z,78.57
2022-12-29T11:00:55.621Z,77.39
2022-12-29T11:04:26.623Z,77.75
2022-12-29T11:07:28.552Z,77.48
2022-12-29T11:10:30.317Z,77.19
2022-12-29T11:13:38.925Z,77.45
2022-12-29T11:16:42.926Z,76.92
2022-12-29T11:19:44.780Z,76.85
2022-12-29T11:22:46.778Z,76.57
2022-12-29T11:26:06.375Z,76.67
2022-12-29T11:29:14.249Z,76.44
2022-12-29T11:32:28.401Z,76.11
2022-12-29T11:35:32.355Z,75.73
2022-12-29T11:38:38.604Z,76.82
2022-12-29T11:41:40.456Z,75.95
2022-12-29T11:44:47.158Z,75.40
2022-12-29T11:47:54.072Z,75.58
2022-12-29T11:51:00.683Z,75.39
2022-12-29T11:54:04.475Z,75.13
2022-12-29T11:57:25.365Z,75.65
2022-12-29T12:00:28.784Z,75.92
2022-12-29T12:03:32.966Z,75.86
2022-12-29T12:06:39.928Z,75.82
2022-12-29T12:09:49.508Z,75.39
2022-12-29T12:12:54.758Z,75.88
2022-12-29T12:16:13.291Z,75.40
2022-12-29T12:19:21.723Z,75.77
2022-12-29T12:22:36.313Z,75.92
2022-12-29T12:25:57.743Z,75.35
2022-12-29T12:28:59.524Z,75.59
2022-12-29T12:32:10.518Z,75.42
2022-12-29T12:35:19.709Z,75.84
2022-12-29T12:38:32.570Z,75.51
2022-12-29T12:42:03.595Z,75.79
2022-12-29T12:45:24.282Z,76.05
2022-12-29T12:48:31.932Z,76.26
2022-12-29T12:51:39.774Z,76.08
2022-12-29T12:54:53.687Z,76.49
2022-12-29T12:58:04.901Z,76.49
2022-12-29T13:01:20.108Z,76.81
2022-12-29T13:04:27.790Z,76.91
2022-12-29T13:07:51.696Z,77.00
2022-12-29T13:11:03.768Z,76.99
2022-12-29T13:14:12.387Z,77.06
2022-12-29T13:17:14.135Z,77.44
2022-12-29T13:20:18.853Z,77.39
2022-12-29T13:23:26.930Z,77.43
2022-12-29T13:26:43.334Z,77.62
2022-12-29T13:30:17.573Z,77.92
2022-12-29T13:33:42.490Z,78.08
2022-12-29T13:36:46.726Z,78.27
2022-12-29T13:39:53.502Z,78.54
2022-12-29T13:42:56.276Z,78.69
2022-12-29T13:46:06.039Z,79.20
2022-12-29T13:49:13.614Z,79.20
2022-12-29T13:52:21.258Z,79.83
2022-12-29T13:55:35.291Z,79.67
2022-12-29T13:58:37.259Z,79.96
2022-12-29T14:01:44.831Z,80.35
2022-12-29T14:04:57.855Z,80.40
2022-12-29T14:08:01.216Z,80.52
2022-12-29T14:11:08.760Z,80.79
2022-12-29T14:14:15.327Z,81.14
2022-12-29T14:17:21.314Z,81.29
2022-12-29T14:20:24.134Z,81.46
2022-12-29T14:23:35.944Z,81.47
2022-12-29T14:26:37.732Z,81.63
2022-12-29T14:29:40.460Z,81.63
2022-12-29T14:33:02.086Z,81.63
2022-12-29T14:50:40.052Z,81.79
2022-12-29T14:53:51.991Z,81.87
2022-12-29T14:56:58.279Z,82.01
2022-12-29T15:00:09.538Z,81.70
2022-12-29T15:03:25.503Z,81.47
2022-12-29T15:06:31.178Z,81.47
2022-12-29T15:09:50.382Z,82.17
2022-12-29T15:12:56.875Z,82.07
2022-12-29T15:15:58.976Z,82.17
2022-12-29T15:19:01.035Z,82.26
2022-12-29T15:22:03.133Z,82.34
2022-12-29T15:25:05.840Z,82.50
2022-12-29T15:28:08.262Z,82.41
2022-12-29T15:31:17.677Z,82.68
2022-12-29T15:34:22.111Z,83.00
2022-12-29T15:37:29.431Z,83.03
2022-12-29T15:40:33.568Z,83.20
2022-12-29T15:44:12.571Z,83.29
2022-12-29T15:47:27.013Z,83.42
2022-12-29T15:50:32.213Z,83.17
2022-12-29T15:53:34.672Z,83.64
2022-12-29T15:56:36.758Z,83.98
2022-12-29T15:59:48.451Z,83.79
2022-12-29T16:16:02.059Z,83.38
2022-12-29T16:19:29.965Z,83.94
2022-12-29T16:22:40.065Z,83.89
2022-12-29T16:25:42.265Z,83.57
2022-12-29T16:28:44.461Z,83.76
2022-12-29T16:32:06.665Z,83.74
2022-12-29T16:35:23.844Z,84.07
2022-12-29T16:38:33.983Z,84.29
2022-12-29T16:41:35.880Z,84.27
2022-12-29T16:44:37.740Z,84.27
2022-12-29T16:47:39.625Z,84.93
2022-12-29T16:50:44.112Z,84.73
2022-12-29T16:53:54.584Z,84.75
2022-12-29T16:56:56.920Z,84.98
2022-12-29T17:00:02.720Z,84.65
2022-12-29T17:03:04.969Z,85.25
2022-12-29T17:06:07.199Z,85.47
2022-12-29T17:09:18.218Z,85.45
2022-12-29T17:12:30.097Z,85.62
2022-12-29T17:15:35.130Z,86.02
2022-12-29T17:18:37.538Z,85.82
2022-12-29T17:21:40.978Z,85.62
2022-12-29T17:24:42.888Z,85.98
2022-12-29T17:28:06.617Z,85.88
2022-12-29T17:31:10.700Z,85.91
2022-12-29T17:34:14.343Z,86.05
2022-12-29T17:37:29.062Z,86.29
2022-12-29T17:40:33.609Z,86.51
2022-12-29T17:43:37.237Z,86.38
2022-12-29T17:46:39.239Z,86.71
2022-12-29T17:49:41.492Z,87.02
2022-12-29T17:52:52.613Z,86.77
2022-12-29T17:55:54.825Z,86.65
2022-12-29T17:58:56.754Z,86.77
2022-12-29T18:01:58.995Z,86.80
2022-12-29T18:05:01.057Z,87.07
2022-12-29T18:08:02.864Z,87.02
2022-12-29T18:11:06.855Z,87.54
2022-12-29T18:14:16.622Z,87.22
2022-12-29T18:17:18.453Z,87.10
2022-12-29T18:20:20.293Z,87.34
2022-12-29T18:23:32.291Z,87.17
2022-12-29T18:26:35.888Z,87.50
2022-12-29T18:29:37.764Z,87.23
2022-12-29T18:32:39.585Z,87.15
2022-12-29T18:36:03.717Z,87.07
2022-12-29T18:39:05.604Z,87.50
2022-12-29T18:42:07.918Z,87.63
2022-12-29T18:45:18.557Z,87.35
2022-12-29T18:48:21.248Z,87.36
2022-12-29T18:51:25.071Z,87.60
2022-12-29T18:54:30.027Z,87.57
2022-12-29T18:57:32.991Z,87.56
2022-12-29T19:00:34.738Z,87.42
2022-12-29T19:03:36.702Z,87.30
2022-12-29T19:06:38.585Z,87.40
2022-12-29T19:09:40.401Z,87.93
2022-12-29T19:12:42.369Z,87.72
2022-12-29T19:15:46.586Z,87.71
2022-12-29T19:19:00.884Z,88.03
2022-12-29T19:22:10.020Z,88.15
2022-12-29T19:25:11.829Z,88.47
2022-12-29T19:28:23.340Z,88.50
2022-12-29T19:31:25.358Z,88.21
2022-12-29T19:34:27.329Z,88.13
2022-12-29T19:37:29.234Z,88.17
2022-12-29T19:40:31.359Z,88.51
2022-12-29T19:43:33.391Z,88.67
2022-12-29T19:46:35.333Z,88.65
2022-12-29T19:49:37.288Z,88.90
2022-12-29T19:52:39.288Z,88.96
2022-12-29T19:55:45.709Z,88.86
2022-12-29T19:58:47.967Z,88.54
2022-12-29T20:01:50.047Z,88.92
2022-12-29T20:04:52.571Z,89.13
2022-12-29T20:07:54.400Z,89.08
2022-12-29T20:11:08.427Z,89.23
2022-12-29T20:14:10.447Z,89.17
2022-12-29T20:17:14.721Z,88.94
2022-12-29T20:20:16.973Z,88.93
2022-12-29T20:23:19.502Z,89.23
2022-12-29T20:26:28.432Z,89.09
2022-12-29T20:29:42.870Z,89.32
2022-12-29T20:32:44.754Z,89.43
2022-12-29T20:35:47.600Z,89.24
2022-12-29T20:38:51.825Z,89.40
2022-12-29T20:41:53.751Z,89.45
2022-12-29T20:44:55.765Z,89.66
2022-12-29T20:47:57.568Z,89.29
2022-12-29T20:51:00.551Z,89.85
2022-12-29T20:54:03.534Z,90.16
2022-12-29T20:57:05.356Z,89.77
2022-12-29T21:00:07.960Z,89.83
2022-12-29T21:03:10.106Z,90.28
2022-12-29T21:06:13.044Z,90.20
2022-12-29T21:09:14.919Z,90.30
2022-12-29T21:12:16.885Z,90.16
2022-12-29T21:15:18.804Z,90.13
2022-12-29T21:18:20.661Z,90.69
2022-12-29T21:21:24.973Z,90.50
2022-12-29T21:24:27.012Z,90.98
2022-12-29T21:27:29.217Z,90.85
2022-12-29T21:30:31.260Z,90.72
2022-12-29T21:33:33.175Z,91.17
2022-12-29T21:36:35.072Z,91.38
2022-12-29T21:39:37.185Z,91.29
2022-12-29T21:42:39.741Z,91.18
2022-12-29T21:45:41.866Z,91.12
2022-12-29T21:48:43.689Z,91.14
2022-12-29T21:51:51.542Z,91.33
2022-12-29T21:55:02.231Z,91.37
2022-12-29T21:58:22.993Z,91.52
2022-12-29T22:01:44.944Z,92.01
2022-12-29T22:05:05.426Z,91.89
2022-12-29T22:08:25.832Z,91.77
2022-12-29T22:11:46.080Z,92.25
2022-12-29T22:14:47.923Z,92.15
2022-12-29T22:17:52.373Z,92.11
2022-12-29T22:20:54.203Z,91.86
2022-12-29T22:23:56.079Z,92.21
2022-12-29T22:26:57.942Z,92.31
2022-12-29T22:29:59.840Z,92.63
2022-12-29T22:33:02.178Z,92.53
2022-12-29T22:36:04.427Z,92.50
2022-12-29T22:39:06.261Z,92.54
2022-12-29T22:42:09.049Z,92.30
2022-12-29T22:45:11.596Z,92.57
2022-12-29T22:48:13.446Z,92.38
2022-12-29T22:51:15.431Z,92.75
2022-12-29T22:54:18.433Z,92.89
2022-12-29T22:57:20.149Z,93.22
2022-12-29T23:00:22.502Z,93.35
2022-12-29T23:03:24.499Z,93.27
2022-12-29T23:06:26.393Z,93.00
2022-12-29T23:09:28.264Z,92.77
2022-12-29T23:12:31.316Z,93.04
2022-12-29T23:15:33.234Z,93.06
2022-12-29T23:18:35.283Z,92.73
2022-12-29T23:21:37.340Z,92.66
2022-12-29T23:24:39.178Z,92.62
2022-12-29T23:27:41.086Z,92.78
2022-12-29T23:30:43.012Z,92.43
2022-12-29T23:33:44.841Z,92.93
2022-12-29T23:36:46.821Z,92.49
2022-12-29T23:39:48.605Z,92.77
2022-12-29T23:42:50.586Z,92.85
2022-12-29T23:45:52.514Z,92.95
2022-12-29T23:48:54.836Z,92.63
2022-12-29T23:51:56.774Z,93.12
2022-12-29T23:54:58.648Z,92.61
2022-12-29T23:58:00.636Z,93.13
